sensor_id;sensor_type;location;lat;lon;timestamp;P1;durP1;ratioP1;P2;durP2;ratioP2
7158;SDS011;63175;52.374;13.132;2023-01-08T00:00:57;2.10;;;2.00;;
7158;SDS011;63175;52.374;13.132;2023-01-08T00:03:28;1.90;;;1.80;;
7158;SDS011;63175;52.374;13.132;2023-01-08T00:05:58;2.90;;;2.70;;
7158;SDS011;63175;52.374;13.132;2023-01-08T00:08:26;2.50;;;2.30;;
7158;SDS011;63175;52.374;13.132;2023-01-08T00:10:53;2.10;;;2.00;;
7158;SDS011;63175;52.374;13.132;2023-01-08T00:13:20;2.33;;;2.23;;
7158;SDS011;63175;52.374;13.132;2023-01-08T00:15:47;2.33;;;2.23;;
7158;SDS011;63175;52.374;13.132;2023-01-08T00:18:16;3.10;;;2.90;;
7158;SDS011;63175;52.374;13.132;2023-01-08T00:20:43;2.90;;;2.57;;
7158;SDS011;63175;52.374;13.132;2023-01-08T00:23:10;2.63;;;2.43;;
7158;SDS011;63175;52.374;13.132;2023-01-08T00:25:37;2.80;;;2.60;;
7158;SDS011;63175;52.374;13.132;2023-01-08T00:28:04;4.43;;;2.60;;
7158;SDS011;63175;52.374;13.132;2023-01-08T00:30:31;8.07;;;2.40;;
7158;SDS011;63175;52.374;13.132;2023-01-08T00:32:58;1.80;;;1.70;;
7158;SDS011;63175;52.374;13.132;2023-01-08T00:35:26;2.50;;;2.30;;
7158;SDS011;63175;52.374;13.132;2023-01-08T00:37:53;1.83;;;1.73;;
7158;SDS011;63175;52.374;13.132;2023-01-08T00:40:20;2.90;;;2.70;;
7158;SDS011;63175;52.374;13.132;2023-01-08T00:42:47;2.47;;;2.27;;
7158;SDS011;63175;52.374;13.132;2023-01-08T00:45:13;2.40;;;2.20;;
7158;SDS011;63175;52.374;13.132;2023-01-08T00:47:40;2.80;;;2.60;;
7158;SDS011;63175;52.374;13.132;2023-01-08T00:50:08;2.20;;;2.10;;
7158;SDS011;63175;52.374;13.132;2023-01-08T00:52:36;2.60;;;2.40;;
7158;SDS011;63175;52.374;13.132;2023-01-08T00:55:04;2.37;;;2.17;;
7158;SDS011;63175;52.374;13.132;2023-01-08T00:57:32;3.00;;;2.80;;
7158;SDS011;63175;52.374;13.132;2023-01-08T00:59:59;2.27;;;2.17;;
7158;SDS011;63175;52.374;13.132;2023-01-08T01:02:26;2.70;;;2.50;;
7158;SDS011;63175;52.374;13.132;2023-01-08T01:04:53;2.90;;;2.70;;
7158;SDS011;63175;52.374;13.132;2023-01-08T01:07:20;2.77;;;2.57;;
7158;SDS011;63175;52.374;13.132;2023-01-08T01:09:48;2.73;;;2.50;;
7158;SDS011;63175;52.374;13.132;2023-01-08T01:12:15;3.17;;;2.47;;
7158;SDS011;63175;52.374;13.132;2023-01-08T01:14:42;3.43;;;3.03;;
7158;SDS011;63175;52.374;13.132;2023-01-08T01:17:09;2.83;;;2.63;;
7158;SDS011;63175;52.374;13.132;2023-01-08T01:19:36;2.70;;;2.53;;
7158;SDS011;63175;52.374;13.132;2023-01-08T01:22:03;2.30;;;2.20;;
7158;SDS011;63175;52.374;13.132;2023-01-08T01:24:30;2.50;;;2.30;;
7158;SDS011;63175;52.374;13.132;2023-01-08T01:26:58;2.97;;;2.73;;
7158;SDS011;63175;52.374;13.132;2023-01-08T01:29:25;2.57;;;2.47;;
7158;SDS011;63175;52.374;13.132;2023-01-08T01:31:52;2.27;;;2.17;;
7158;SDS011;63175;52.374;13.132;2023-01-08T01:34:19;2.50;;;2.40;;
7158;SDS011;63175;52.374;13.132;2023-01-08T01:36:46;2.20;;;2.10;;
7158;SDS011;63175;52.374;13.132;2023-01-08T01:39:13;3.80;;;2.50;;
7158;SDS011;63175;52.374;13.132;2023-01-08T01:41:40;2.90;;;2.70;;
7158;SDS011;63175;52.374;13.132;2023-01-08T01:47:04;3.00;;;2.80;;
7158;SDS011;63175;52.374;13.132;2023-01-08T01:49:37;3.83;;;3.53;;
7158;SDS011;63175;52.374;13.132;2023-01-08T01:52:06;2.30;;;2.20;;
7158;SDS011;63175;52.374;13.132;2023-01-08T01:54:34;2.73;;;2.60;;
7158;SDS011;63175;52.374;13.132;2023-01-08T01:57:02;2.90;;;2.73;;
7158;SDS011;63175;52.374;13.132;2023-01-08T01:59:29;2.63;;;2.43;;
7158;SDS011;63175;52.374;13.132;2023-01-08T02:01:58;2.40;;;2.20;;
7158;SDS011;63175;52.374;13.132;2023-01-08T02:04:25;3.40;;;3.10;;
7158;SDS011;63175;52.374;13.132;2023-01-08T02:06:54;2.30;;;2.13;;
7158;SDS011;63175;52.374;13.132;2023-01-08T02:09:28;2.40;;;2.30;;
7158;SDS011;63175;52.374;13.132;2023-01-08T02:12:06;2.50;;;2.40;;
7158;SDS011;63175;52.374;13.132;2023-01-08T02:14:45;4.47;;;2.60;;
7158;SDS011;63175;52.374;13.132;2023-01-08T02:17:23;2.63;;;2.53;;
7158;SDS011;63175;52.374;13.132;2023-01-08T02:19:59;2.63;;;2.43;;
7158;SDS011;63175;52.374;13.132;2023-01-08T02:22:34;3.10;;;2.90;;
7158;SDS011;63175;52.374;13.132;2023-01-08T02:25:12;5.17;;;3.17;;
7158;SDS011;63175;52.374;13.132;2023-01-08T02:27:48;3.27;;;3.00;;
7158;SDS011;63175;52.374;13.132;2023-01-08T02:30:17;3.70;;;3.00;;
7158;SDS011;63175;52.374;13.132;2023-01-08T02:32:44;2.67;;;2.47;;
7158;SDS011;63175;52.374;13.132;2023-01-08T02:35:11;2.70;;;2.50;;
7158;SDS011;63175;52.374;13.132;2023-01-08T02:37:38;2.53;;;2.33;;
7158;SDS011;63175;52.374;13.132;2023-01-08T02:40:09;2.90;;;2.70;;
7158;SDS011;63175;52.374;13.132;2023-01-08T02:42:52;3.03;;;2.80;;
7158;SDS011;63175;52.374;13.132;2023-01-08T02:45:29;2.87;;;2.67;;
7158;SDS011;63175;52.374;13.132;2023-01-08T02:48:04;3.33;;;3.03;;
7158;SDS011;63175;52.374;13.132;2023-01-08T02:50:35;3.40;;;3.10;;
7158;SDS011;63175;52.374;13.132;2023-01-08T02:53:06;4.50;;;3.57;;
7158;SDS011;63175;52.374;13.132;2023-01-08T02:55:37;3.40;;;3.10;;
7158;SDS011;63175;52.374;13.132;2023-01-08T02:58:08;3.40;;;3.20;;
7158;SDS011;63175;52.374;13.132;2023-01-08T03:00:36;2.77;;;2.57;;
7158;SDS011;63175;52.374;13.132;2023-01-08T03:03:06;4.83;;;3.73;;
7158;SDS011;63175;52.374;13.132;2023-01-08T03:05:35;3.00;;;2.80;;
7158;SDS011;63175;52.374;13.132;2023-01-08T03:08:05;3.10;;;2.87;;
7158;SDS011;63175;52.374;13.132;2023-01-08T03:10:33;2.23;;;2.13;;
7158;SDS011;63175;52.374;13.132;2023-01-08T03:13:02;3.33;;;3.13;;
7158;SDS011;63175;52.374;13.132;2023-01-08T03:15:35;3.00;;;2.73;;
7158;SDS011;63175;52.374;13.132;2023-01-08T03:18:06;3.83;;;3.40;;
7158;SDS011;63175;52.374;13.132;2023-01-08T03:20:37;3.60;;;3.30;;
7158;SDS011;63175;52.374;13.132;2023-01-08T03:23:05;4.83;;;3.00;;
7158;SDS011;63175;52.374;13.132;2023-01-08T03:25:35;3.47;;;3.17;;
7158;SDS011;63175;52.374;13.132;2023-01-08T03:28:06;2.97;;;2.77;;
7158;SDS011;63175;52.374;13.132;2023-01-08T03:30:38;3.10;;;2.83;;
7158;SDS011;63175;52.374;13.132;2023-01-08T03:33:07;3.27;;;3.07;;
7158;SDS011;63175;52.374;13.132;2023-01-08T03:35:35;3.47;;;3.27;;
7158;SDS011;63175;52.374;13.132;2023-01-08T03:38:06;4.27;;;3.53;;
7158;SDS011;63175;52.374;13.132;2023-01-08T03:40:38;3.47;;;3.20;;
7158;SDS011;63175;52.374;13.132;2023-01-08T03:43:09;3.90;;;3.53;;
7158;SDS011;63175;52.374;13.132;2023-01-08T03:45:36;3.87;;;3.60;;
7158;SDS011;63175;52.374;13.132;2023-01-08T03:48:08;3.33;;;3.13;;
7158;SDS011;63175;52.374;13.132;2023-01-08T03:50:35;3.13;;;2.93;;
7158;SDS011;63175;52.374;13.132;2023-01-08T03:53:02;4.13;;;3.80;;
7158;SDS011;63175;52.374;13.132;2023-01-08T03:55:29;3.50;;;3.20;;
7158;SDS011;63175;52.374;13.132;2023-01-08T03:57:56;3.47;;;3.27;;
7158;SDS011;63175;52.374;13.132;2023-01-08T04:00:22;3.80;;;3.60;;
7158;SDS011;63175;52.374;13.132;2023-01-08T04:02:51;4.47;;;4.00;;
7158;SDS011;63175;52.374;13.132;2023-01-08T04:05:18;3.60;;;3.40;;
7158;SDS011;63175;52.374;13.132;2023-01-08T04:07:44;4.93;;;3.50;;
7158;SDS011;63175;52.374;13.132;2023-01-08T04:10:11;3.97;;;3.60;;
7158;SDS011;63175;52.374;13.132;2023-01-08T04:12:39;3.80;;;3.50;;
7158;SDS011;63175;52.374;13.132;2023-01-08T04:15:07;4.20;;;3.90;;
7158;SDS011;63175;52.374;13.132;2023-01-08T04:17:34;3.30;;;3.10;;
7158;SDS011;63175;52.374;13.132;2023-01-08T04:20:03;3.07;;;2.87;;
7158;SDS011;63175;52.374;13.132;2023-01-08T04:22:30;4.93;;;4.53;;
7158;SDS011;63175;52.374;13.132;2023-01-08T04:24:57;3.70;;;3.40;;
7158;SDS011;63175;52.374;13.132;2023-01-08T04:27:24;4.23;;;3.93;;
7158;SDS011;63175;52.374;13.132;2023-01-08T04:29:51;5.30;;;3.90;;
7158;SDS011;63175;52.374;13.132;2023-01-08T04:32:18;4.40;;;3.63;;
7158;SDS011;63175;52.374;13.132;2023-01-08T04:34:45;4.03;;;3.80;;
7158;SDS011;63175;52.374;13.132;2023-01-08T04:37:13;5.30;;;4.90;;
7158;SDS011;63175;52.374;13.132;2023-01-08T04:39:40;4.23;;;3.93;;
7158;SDS011;63175;52.374;13.132;2023-01-08T04:42:07;4.57;;;4.27;;
7158;SDS011;63175;52.374;13.132;2023-01-08T04:44:34;4.17;;;3.87;;
7158;SDS011;63175;52.374;13.132;2023-01-08T04:47:01;4.60;;;4.30;;
7158;SDS011;63175;52.374;13.132;2023-01-08T04:49:28;4.70;;;4.30;;
7158;SDS011;63175;52.374;13.132;2023-01-08T04:51:55;4.50;;;4.10;;
7158;SDS011;63175;52.374;13.132;2023-01-08T04:54:23;4.57;;;4.20;;
7158;SDS011;63175;52.374;13.132;2023-01-08T04:56:50;5.03;;;4.60;;
7158;SDS011;63175;52.374;13.132;2023-01-08T04:59:17;4.30;;;3.90;;
7158;SDS011;63175;52.374;13.132;2023-01-08T05:01:44;4.90;;;4.50;;
7158;SDS011;63175;52.374;13.132;2023-01-08T05:04:10;4.90;;;4.50;;
7158;SDS011;63175;52.374;13.132;2023-01-08T05:06:37;4.60;;;4.13;;
7158;SDS011;63175;52.374;13.132;2023-01-08T05:09:04;4.70;;;4.30;;
7158;SDS011;63175;52.374;13.132;2023-01-08T05:11:32;4.57;;;4.17;;
7158;SDS011;63175;52.374;13.132;2023-01-08T05:14:01;4.33;;;4.03;;
7158;SDS011;63175;52.374;13.132;2023-01-08T05:16:28;4.30;;;4.00;;
7158;SDS011;63175;52.374;13.132;2023-01-08T05:18:56;4.80;;;4.40;;
7158;SDS011;63175;52.374;13.132;2023-01-08T05:21:23;4.70;;;4.27;;
7158;SDS011;63175;52.374;13.132;2023-01-08T05:23:49;4.43;;;4.03;;
7158;SDS011;63175;52.374;13.132;2023-01-08T05:26:16;3.80;;;3.50;;
7158;SDS011;63175;52.374;13.132;2023-01-08T05:28:45;3.93;;;3.63;;
7158;SDS011;63175;52.374;13.132;2023-01-08T05:31:12;4.10;;;3.80;;
7158;SDS011;63175;52.374;13.132;2023-01-08T05:33:39;4.27;;;3.97;;
7158;SDS011;63175;52.374;13.132;2023-01-08T05:36:06;4.07;;;3.80;;
7158;SDS011;63175;52.374;13.132;2023-01-08T05:38:35;4.27;;;3.97;;
7158;SDS011;63175;52.374;13.132;2023-01-08T05:41:02;4.50;;;4.10;;
7158;SDS011;63175;52.374;13.132;2023-01-08T05:43:29;3.93;;;3.73;;
7158;SDS011;63175;52.374;13.132;2023-01-08T05:45:58;3.77;;;3.47;;
7158;SDS011;63175;52.374;13.132;2023-01-08T05:48:25;4.30;;;3.90;;
7158;SDS011;63175;52.374;13.132;2023-01-08T05:50:52;5.30;;;4.10;;
7158;SDS011;63175;52.374;13.132;2023-01-08T05:53:19;4.90;;;4.50;;
7158;SDS011;63175;52.374;13.132;2023-01-08T05:55:46;3.80;;;3.57;;
7158;SDS011;63175;52.374;13.132;2023-01-08T05:58:13;4.70;;;3.80;;
7158;SDS011;63175;52.374;13.132;2023-01-08T06:00:43;4.07;;;3.77;;
7158;SDS011;63175;52.374;13.132;2023-01-08T06:03:11;5.20;;;3.90;;
7158;SDS011;63175;52.374;13.132;2023-01-08T06:05:38;4.63;;;4.30;;
7158;SDS011;63175;52.374;13.132;2023-01-08T06:08:05;3.90;;;3.50;;
7158;SDS011;63175;52.374;13.132;2023-01-08T06:10:32;3.87;;;3.47;;
7158;SDS011;63175;52.374;13.132;2023-01-08T06:12:58;3.23;;;3.03;;
7158;SDS011;63175;52.374;13.132;2023-01-08T06:15:25;4.00;;;3.70;;
7158;SDS011;63175;52.374;13.132;2023-01-08T06:17:52;3.40;;;3.20;;
7158;SDS011;63175;52.374;13.132;2023-01-08T06:20:20;4.53;;;4.17;;
7158;SDS011;63175;52.374;13.132;2023-01-08T06:22:47;4.23;;;3.93;;
7158;SDS011;63175;52.374;13.132;2023-01-08T06:25:14;4.80;;;4.03;;
7158;SDS011;63175;52.374;13.132;2023-01-08T06:27:41;3.77;;;3.47;;
7158;SDS011;63175;52.374;13.132;2023-01-08T06:30:08;3.70;;;3.50;;
7158;SDS011;63175;52.374;13.132;2023-01-08T06:32:35;3.53;;;3.33;;
7158;SDS011;63175;52.374;13.132;2023-01-08T06:35:02;3.90;;;3.60;;
7158;SDS011;63175;52.374;13.132;2023-01-08T06:37:31;5.57;;;3.83;;
7158;SDS011;63175;52.374;13.132;2023-01-08T06:39:57;4.50;;;4.10;;
7158;SDS011;63175;52.374;13.132;2023-01-08T06:42:24;4.20;;;3.90;;
7158;SDS011;63175;52.374;13.132;2023-01-08T06:44:51;4.17;;;3.80;;
7158;SDS011;63175;52.374;13.132;2023-01-08T06:47:18;4.27;;;3.87;;
7158;SDS011;63175;52.374;13.132;2023-01-08T06:49:45;4.63;;;4.23;;
7158;SDS011;63175;52.374;13.132;2023-01-08T06:52:12;3.80;;;3.60;;
7158;SDS011;63175;52.374;13.132;2023-01-08T06:54:40;3.63;;;3.33;;
7158;SDS011;63175;52.374;13.132;2023-01-08T06:57:07;3.97;;;3.67;;
7158;SDS011;63175;52.374;13.132;2023-01-08T06:59:33;3.03;;;2.77;;
7158;SDS011;63175;52.374;13.132;2023-01-08T07:02:00;3.33;;;3.13;;
7158;SDS011;63175;52.374;13.132;2023-01-08T07:04:27;2.93;;;2.73;;
7158;SDS011;63175;52.374;13.132;2023-01-08T07:06:54;2.50;;;2.40;;
7158;SDS011;63175;52.374;13.132;2023-01-08T07:09:21;3.27;;;3.07;;
7158;SDS011;63175;52.374;13.132;2023-01-08T07:11:49;4.17;;;3.80;;
7158;SDS011;63175;52.374;13.132;2023-01-08T07:14:16;4.07;;;3.77;;
7158;SDS011;63175;52.374;13.132;2023-01-08T07:16:43;3.60;;;3.40;;
7158;SDS011;63175;52.374;13.132;2023-01-08T07:19:09;4.70;;;4.20;;
7158;SDS011;63175;52.374;13.132;2023-01-08T07:21:37;4.23;;;3.83;;
7158;SDS011;63175;52.374;13.132;2023-01-08T07:24:04;4.17;;;3.87;;
7158;SDS011;63175;52.374;13.132;2023-01-08T07:26:32;4.43;;;3.43;;
7158;SDS011;63175;52.374;13.132;2023-01-08T07:29:00;4.57;;;4.27;;
7158;SDS011;63175;52.374;13.132;2023-01-08T07:31:27;5.67;;;4.13;;
7158;SDS011;63175;52.374;13.132;2023-01-08T07:33:54;3.37;;;3.17;;
7158;SDS011;63175;52.374;13.132;2023-01-08T07:36:21;4.40;;;4.10;;
7158;SDS011;63175;52.374;13.132;2023-01-08T07:38:48;4.87;;;4.47;;
7158;SDS011;63175;52.374;13.132;2023-01-08T07:41:15;4.17;;;3.73;;
7158;SDS011;63175;52.374;13.132;2023-01-08T07:43:42;3.47;;;3.27;;
7158;SDS011;63175;52.374;13.132;2023-01-08T07:46:10;3.93;;;3.63;;
7158;SDS011;63175;52.374;13.132;2023-01-08T07:48:37;4.13;;;3.70;;
7158;SDS011;63175;52.374;13.132;2023-01-08T07:51:05;3.63;;;3.40;;
7158;SDS011;63175;52.374;13.132;2023-01-08T07:53:33;3.77;;;3.50;;
7158;SDS011;63175;52.374;13.132;2023-01-08T07:56:01;3.30;;;3.10;;
7158;SDS011;63175;52.374;13.132;2023-01-08T07:58:28;3.90;;;3.60;;
7158;SDS011;63175;52.374;13.132;2023-01-08T08:00:55;4.10;;;3.80;;
7158;SDS011;63175;52.374;13.132;2023-01-08T08:03:24;3.93;;;3.63;;
7158;SDS011;63175;52.374;13.132;2023-01-08T08:05:51;3.83;;;3.47;;
7158;SDS011;63175;52.374;13.132;2023-01-08T08:08:18;3.93;;;3.63;;
7158;SDS011;63175;52.374;13.132;2023-01-08T08:10:45;4.27;;;3.93;;
7158;SDS011;63175;52.374;13.132;2023-01-08T08:13:12;4.20;;;3.90;;
7158;SDS011;63175;52.374;13.132;2023-01-08T08:15:39;3.67;;;3.47;;
7158;SDS011;63175;52.374;13.132;2023-01-08T08:18:06;6.13;;;3.07;;
7158;SDS011;63175;52.374;13.132;2023-01-08T08:20:35;3.63;;;3.33;;
7158;SDS011;63175;52.374;13.132;2023-01-08T08:23:02;3.40;;;3.20;;
7158;SDS011;63175;52.374;13.132;2023-01-08T08:25:30;3.10;;;2.90;;
7158;SDS011;63175;52.374;13.132;2023-01-08T08:27:58;4.00;;;3.60;;
7158;SDS011;63175;52.374;13.132;2023-01-08T08:30:26;4.80;;;4.37;;
7158;SDS011;63175;52.374;13.132;2023-01-08T08:32:54;3.60;;;3.30;;
7158;SDS011;63175;52.374;13.132;2023-01-08T08:35:23;4.00;;;3.70;;
7158;SDS011;63175;52.374;13.132;2023-01-08T08:37:51;4.57;;;3.93;;
7158;SDS011;63175;52.374;13.132;2023-01-08T08:40:18;4.40;;;4.10;;
7158;SDS011;63175;52.374;13.132;2023-01-08T08:42:45;3.47;;;3.27;;
7158;SDS011;63175;52.374;13.132;2023-01-08T08:45:12;3.50;;;3.30;;
7158;SDS011;63175;52.374;13.132;2023-01-08T08:47:39;3.70;;;3.50;;
7158;SDS011;63175;52.374;13.132;2023-01-08T08:50:06;3.27;;;3.10;;
7158;SDS011;63175;52.374;13.132;2023-01-08T08:52:33;4.23;;;3.30;;
7158;SDS011;63175;52.374;13.132;2023-01-08T08:55:03;3.20;;;3.00;;
7158;SDS011;63175;52.374;13.132;2023-01-08T08:57:30;3.20;;;3.00;;
7158;SDS011;63175;52.374;13.132;2023-01-08T08:59:57;3.47;;;3.20;;
7158;SDS011;63175;52.374;13.132;2023-01-08T09:02:25;3.17;;;2.97;;
7158;SDS011;63175;52.374;13.132;2023-01-08T09:04:52;3.10;;;2.90;;
7158;SDS011;63175;52.374;13.132;2023-01-08T09:07:18;2.83;;;2.73;;
7158;SDS011;63175;52.374;13.132;2023-01-08T09:09:45;3.73;;;3.23;;
7158;SDS011;63175;52.374;13.132;2023-01-08T09:12:13;3.60;;;3.30;;
7158;SDS011;63175;52.374;13.132;2023-01-08T09:14:40;3.70;;;3.40;;
7158;SDS011;63175;52.374;13.132;2023-01-08T09:17:07;3.17;;;3.00;;
7158;SDS011;63175;52.374;13.132;2023-01-08T09:19:34;3.60;;;3.33;;
7158;SDS011;63175;52.374;13.132;2023-01-08T09:22:01;4.50;;;3.00;;
7158;SDS011;63175;52.374;13.132;2023-01-08T09:24:28;3.80;;;3.33;;
7158;SDS011;63175;52.374;13.132;2023-01-08T09:26:56;3.47;;;3.17;;
7158;SDS011;63175;52.374;13.132;2023-01-08T09:29:24;3.30;;;3.00;;
7158;SDS011;63175;52.374;13.132;2023-01-08T09:31:51;3.87;;;3.50;;
7158;SDS011;63175;52.374;13.132;2023-01-08T09:34:18;3.10;;;2.90;;
7158;SDS011;63175;52.374;13.132;2023-01-08T09:36:45;3.53;;;3.20;;
7158;SDS011;63175;52.374;13.132;2023-01-08T09:39:12;3.93;;;2.73;;
7158;SDS011;63175;52.374;13.132;2023-01-08T09:41:40;3.90;;;3.27;;
7158;SDS011;63175;52.374;13.132;2023-01-08T09:44:10;3.33;;;3.03;;
7158;SDS011;63175;52.374;13.132;2023-01-08T09:46:42;3.57;;;3.27;;
7158;SDS011;63175;52.374;13.132;2023-01-08T09:49:13;3.33;;;3.03;;
7158;SDS011;63175;52.374;13.132;2023-01-08T09:51:46;4.03;;;3.67;;
7158;SDS011;63175;52.374;13.132;2023-01-08T09:54:14;3.90;;;3.60;;
7158;SDS011;63175;52.374;13.132;2023-01-08T09:56:42;4.33;;;3.93;;
7158;SDS011;63175;52.374;13.132;2023-01-08T09:59:10;4.67;;;4.27;;
7158;SDS011;63175;52.374;13.132;2023-01-08T10:01:39;3.83;;;3.53;;
7158;SDS011;63175;52.374;13.132;2023-01-08T10:04:12;5.30;;;4.47;;
7158;SDS011;63175;52.374;13.132;2023-01-08T10:06:44;4.40;;;4.00;;
7158;SDS011;63175;52.374;13.132;2023-01-08T10:09:15;3.77;;;3.17;;
7158;SDS011;63175;52.374;13.132;2023-01-08T10:11:43;3.47;;;3.27;;
7158;SDS011;63175;52.374;13.132;2023-01-08T10:14:15;4.37;;;3.97;;
7158;SDS011;63175;52.374;13.132;2023-01-08T10:16:46;5.20;;;4.30;;
7158;SDS011;63175;52.374;13.132;2023-01-08T10:19:19;3.83;;;3.53;;
7158;SDS011;63175;52.374;13.132;2023-01-08T10:21:46;3.80;;;3.50;;
7158;SDS011;63175;52.374;13.132;2023-01-08T10:24:13;4.37;;;4.07;;
7158;SDS011;63175;52.374;13.132;2023-01-08T10:26:40;3.90;;;3.60;;
7158;SDS011;63175;52.374;13.132;2023-01-08T10:29:08;3.57;;;3.37;;
7158;SDS011;63175;52.374;13.132;2023-01-08T10:31:43;3.70;;;3.50;;
7158;SDS011;63175;52.374;13.132;2023-01-08T10:34:17;6.10;;;3.93;;
7158;SDS011;63175;52.374;13.132;2023-01-08T10:36:51;3.93;;;3.60;;
7158;SDS011;63175;52.374;13.132;2023-01-08T10:39:20;3.63;;;3.43;;
7158;SDS011;63175;52.374;13.132;2023-01-08T10:41:49;4.20;;;3.90;;
7158;SDS011;63175;52.374;13.132;2023-01-08T10:44:18;3.50;;;3.30;;
7158;SDS011;63175;52.374;13.132;2023-01-08T10:46:48;4.03;;;3.43;;
7158;SDS011;63175;52.374;13.132;2023-01-08T10:49:19;4.23;;;3.93;;
7158;SDS011;63175;52.374;13.132;2023-01-08T10:51:53;7.87;;;4.13;;
7158;SDS011;63175;52.374;13.132;2023-01-08T10:54:32;3.60;;;3.33;;
7158;SDS011;63175;52.374;13.132;2023-01-08T10:57:00;4.40;;;4.10;;
7158;SDS011;63175;52.374;13.132;2023-01-08T10:59:27;5.53;;;4.47;;
7158;SDS011;63175;52.374;13.132;2023-01-08T11:01:56;3.87;;;3.57;;
7158;SDS011;63175;52.374;13.132;2023-01-08T11:04:27;4.07;;;3.87;;
7158;SDS011;63175;52.374;13.132;2023-01-08T11:06:58;3.97;;;3.67;;
7158;SDS011;63175;52.374;13.132;2023-01-08T11:09:27;4.90;;;4.50;;
7158;SDS011;63175;52.374;13.132;2023-01-08T11:11:56;4.70;;;4.37;;
7158;SDS011;63175;52.374;13.132;2023-01-08T11:14:24;4.20;;;3.83;;
7158;SDS011;63175;52.374;13.132;2023-01-08T11:16:53;4.17;;;3.40;;
7158;SDS011;63175;52.374;13.132;2023-01-08T11:19:22;3.30;;;3.10;;
7158;SDS011;63175;52.374;13.132;2023-01-08T11:21:54;10.67;;;6.63;;
7158;SDS011;63175;52.374;13.132;2023-01-08T11:24:24;6.30;;;5.17;;
7158;SDS011;63175;52.374;13.132;2023-01-08T11:26:55;5.30;;;4.80;;
7158;SDS011;63175;52.374;13.132;2023-01-08T11:29:28;5.80;;;5.20;;
7158;SDS011;63175;52.374;13.132;2023-01-08T11:32:02;4.70;;;4.30;;
7158;SDS011;63175;52.374;13.132;2023-01-08T11:34:36;4.63;;;4.23;;
7158;SDS011;63175;52.374;13.132;2023-01-08T11:37:17;4.60;;;4.30;;
7158;SDS011;63175;52.374;13.132;2023-01-08T11:39:46;4.00;;;3.63;;
7158;SDS011;63175;52.374;13.132;2023-01-08T11:42:18;4.20;;;3.90;;
7158;SDS011;63175;52.374;13.132;2023-01-08T11:45:01;3.70;;;3.50;;
7158;SDS011;63175;52.374;13.132;2023-01-08T11:47:44;4.13;;;3.90;;
7158;SDS011;63175;52.374;13.132;2023-01-08T11:50:23;3.93;;;3.60;;
7158;SDS011;63175;52.374;13.132;2023-01-08T11:53:07;4.40;;;4.10;;
7158;SDS011;63175;52.374;13.132;2023-01-08T11:55:45;3.80;;;3.60;;
7158;SDS011;63175;52.374;13.132;2023-01-08T11:58:27;4.70;;;3.80;;
7158;SDS011;63175;52.374;13.132;2023-01-08T12:01:07;3.90;;;3.60;;
7158;SDS011;63175;52.374;13.132;2023-01-08T12:03:42;3.90;;;3.70;;
7158;SDS011;63175;52.374;13.132;2023-01-08T12:06:15;3.73;;;3.53;;
7158;SDS011;63175;52.374;13.132;2023-01-08T12:08:55;4.43;;;4.10;;
7158;SDS011;63175;52.374;13.132;2023-01-08T12:11:35;4.17;;;3.87;;
7158;SDS011;63175;52.374;13.132;2023-01-08T12:14:18;3.90;;;3.70;;
7158;SDS011;63175;52.374;13.132;2023-01-08T12:16:59;4.40;;;4.00;;
7158;SDS011;63175;52.374;13.132;2023-01-08T12:19:41;3.97;;;3.67;;
7158;SDS011;63175;52.374;13.132;2023-01-08T12:22:25;4.40;;;4.10;;
7158;SDS011;63175;52.374;13.132;2023-01-08T12:25:19;4.00;;;3.80;;
7158;SDS011;63175;52.374;13.132;2023-01-08T12:27:53;3.80;;;3.60;;
7158;SDS011;63175;52.374;13.132;2023-01-08T12:30:30;4.87;;;4.47;;
7158;SDS011;63175;52.374;13.132;2023-01-08T12:33:08;3.70;;;3.50;;
7158;SDS011;63175;52.374;13.132;2023-01-08T12:35:39;4.50;;;4.20;;
7158;SDS011;63175;52.374;13.132;2023-01-08T12:38:12;4.37;;;4.00;;
7158;SDS011;63175;52.374;13.132;2023-01-08T12:40:45;4.80;;;4.33;;
7158;SDS011;63175;52.374;13.132;2023-01-08T12:43:16;4.73;;;4.33;;
7158;SDS011;63175;52.374;13.132;2023-01-08T12:45:49;4.33;;;4.03;;
7158;SDS011;63175;52.374;13.132;2023-01-08T12:48:18;4.87;;;4.47;;
7158;SDS011;63175;52.374;13.132;2023-01-08T12:50:51;4.30;;;4.00;;
7158;SDS011;63175;52.374;13.132;2023-01-08T12:53:29;4.57;;;4.27;;
7158;SDS011;63175;52.374;13.132;2023-01-08T12:56:09;4.20;;;3.90;;
7158;SDS011;63175;52.374;13.132;2023-01-08T12:58:53;3.77;;;3.57;;
7158;SDS011;63175;52.374;13.132;2023-01-08T13:01:32;4.50;;;4.20;;
7158;SDS011;63175;52.374;13.132;2023-01-08T13:04:06;4.50;;;4.20;;
7158;SDS011;63175;52.374;13.132;2023-01-08T13:06:35;4.30;;;3.90;;
7158;SDS011;63175;52.374;13.132;2023-01-08T13:09:02;4.87;;;4.37;;
7158;SDS011;63175;52.374;13.132;2023-01-08T13:11:32;4.70;;;4.30;;
7158;SDS011;63175;52.374;13.132;2023-01-08T13:14:02;5.63;;;4.13;;
7158;SDS011;63175;52.374;13.132;2023-01-08T13:16:33;4.60;;;4.30;;
7158;SDS011;63175;52.374;13.132;2023-01-08T13:19:03;4.43;;;4.13;;
7158;SDS011;63175;52.374;13.132;2023-01-08T13:21:32;4.80;;;4.40;;
7158;SDS011;63175;52.374;13.132;2023-01-08T13:24:02;4.37;;;4.07;;
7158;SDS011;63175;52.374;13.132;2023-01-08T13:26:33;4.67;;;4.27;;
7158;SDS011;63175;52.374;13.132;2023-01-08T13:29:21;4.83;;;4.47;;
7158;SDS011;63175;52.374;13.132;2023-01-08T13:32:02;4.00;;;3.80;;
7158;SDS011;63175;52.374;13.132;2023-01-08T13:34:35;4.60;;;4.23;;
7158;SDS011;63175;52.374;13.132;2023-01-08T13:37:04;4.60;;;4.30;;
7158;SDS011;63175;52.374;13.132;2023-01-08T13:39:32;6.03;;;4.70;;
7158;SDS011;63175;52.374;13.132;2023-01-08T13:42:03;4.50;;;4.20;;
7158;SDS011;63175;52.374;13.132;2023-01-08T13:44:46;5.30;;;4.40;;
7158;SDS011;63175;52.374;13.132;2023-01-08T13:47:17;4.87;;;4.47;;
7158;SDS011;63175;52.374;13.132;2023-01-08T13:49:50;4.53;;;4.10;;
7158;SDS011;63175;52.374;13.132;2023-01-08T13:52:32;4.30;;;4.00;;
7158;SDS011;63175;52.374;13.132;2023-01-08T13:55:04;6.07;;;4.80;;
7158;SDS011;63175;52.374;13.132;2023-01-08T13:57:41;4.97;;;4.57;;
7158;SDS011;63175;52.374;13.132;2023-01-08T14:00:16;6.53;;;5.63;;
7158;SDS011;63175;52.374;13.132;2023-01-08T14:02:46;4.83;;;4.53;;
7158;SDS011;63175;52.374;13.132;2023-01-08T14:05:19;5.53;;;5.03;;
7158;SDS011;63175;52.374;13.132;2023-01-08T14:07:50;4.90;;;4.53;;
7158;SDS011;63175;52.374;13.132;2023-01-08T14:10:17;4.97;;;4.57;;
7158;SDS011;63175;52.374;13.132;2023-01-08T14:12:46;4.33;;;4.03;;
7158;SDS011;63175;52.374;13.132;2023-01-08T14:15:16;5.60;;;5.10;;
7158;SDS011;63175;52.374;13.132;2023-01-08T14:17:47;9.03;;;7.77;;
7158;SDS011;63175;52.374;13.132;2023-01-08T14:20:18;12.37;;;8.67;;
7158;SDS011;63175;52.374;13.132;2023-01-08T14:22:49;10.13;;;9.13;;
7158;SDS011;63175;52.374;13.132;2023-01-08T14:25:16;21.53;;;16.60;;
7158;SDS011;63175;52.374;13.132;2023-01-08T14:27:54;16.30;;;12.70;;
7158;SDS011;63175;52.374;13.132;2023-01-08T14:30:23;15.30;;;12.30;;
7158;SDS011;63175;52.374;13.132;2023-01-08T14:32:50;10.73;;;9.63;;
7158;SDS011;63175;52.374;13.132;2023-01-08T14:35:19;8.97;;;8.07;;
7158;SDS011;63175;52.374;13.132;2023-01-08T14:37:51;9.53;;;8.63;;
7158;SDS011;63175;52.374;13.132;2023-01-08T14:40:25;12.57;;;11.27;;
7158;SDS011;63175;52.374;13.132;2023-01-08T14:42:55;18.80;;;15.87;;
7158;SDS011;63175;52.374;13.132;2023-01-08T14:45:25;20.53;;;17.00;;
7158;SDS011;63175;52.374;13.132;2023-01-08T14:47:54;16.83;;;13.90;;
7158;SDS011;63175;52.374;13.132;2023-01-08T14:50:22;21.20;;;16.43;;
7158;SDS011;63175;52.374;13.132;2023-01-08T14:52:53;18.10;;;14.70;;
7158;SDS011;63175;52.374;13.132;2023-01-08T14:55:23;15.37;;;13.70;;
7158;SDS011;63175;52.374;13.132;2023-01-08T14:57:52;18.97;;;14.80;;
7158;SDS011;63175;52.374;13.132;2023-01-08T15:00:23;13.67;;;12.30;;
7158;SDS011;63175;52.374;13.132;2023-01-08T15:02:52;14.17;;;11.67;;